createdAt,value
2017-11-04T00:00:07.884Z,44.50
2017-11-04T00:01:07.858Z,45.80
2017-11-04T00:02:07.833Z,45.30
2017-11-04T00:03:07.807Z,45.10
2017-11-04T00:04:07.796Z,46.20
2017-11-04T00:05:07.752Z,46.30
2017-11-04T00:06:07.726Z,45.60
2017-11-04T00:07:07.704Z,45.10
2017-11-04T00:08:07.678Z,46.60
2017-11-04T00:09:07.651Z,45.50
2017-11-04T00:10:07.622Z,44.80
2017-11-04T00:11:07.594Z,46.10
2017-11-04T00:12:07.575Z,46.00
2017-11-04T00:13:07.545Z,45.70
2017-11-04T00:14:07.525Z,45.90
2017-11-04T00:15:07.491Z,45.90
2017-11-04T00:16:07.468Z,46.40
2017-11-04T00:17:07.437Z,44.50
2017-11-04T00:18:07.411Z,45.20
2017-11-04T00:19:07.390Z,44.80
2017-11-04T00:20:07.363Z,45.80
2017-11-04T00:21:07.331Z,45.60
2017-11-04T00:22:07.314Z,44.80
2017-11-04T00:23:07.284Z,45.10
2017-11-04T00:24:07.256Z,44.00
2017-11-04T00:25:07.232Z,44.90
2017-11-04T00:26:07.201Z,45.20
2017-11-04T00:27:07.177Z,43.40
2017-11-04T00:28:07.148Z,43.60
2017-11-04T00:29:07.124Z,43.90
2017-11-04T00:30:07.096Z,44.40
2017-11-04T00:31:07.069Z,44.20
2017-11-04T00:32:07.047Z,43.60
2017-11-04T00:33:07.024Z,41.90
2017-11-04T00:34:06.999Z,41.80
2017-11-04T00:35:06.965Z,41.90
2017-11-04T00:36:06.947Z,42.70
2017-11-04T00:37:06.925Z,43.60
2017-11-04T00:38:06.885Z,43.50
2017-11-04T00:39:07.158Z,42.90
2017-11-04T00:40:06.832Z,41.90
2017-11-04T00:41:06.808Z,41.70
2017-11-04T00:42:06.781Z,43.90
2017-11-04T00:43:06.764Z,43.80
2017-11-04T00:44:06.739Z,43.00
2017-11-04T00:45:06.999Z,43.00
2017-11-04T00:46:06.679Z,43.40
2017-11-04T00:47:06.647Z,44.00
2017-11-04T00:48:06.627Z,44.30
2017-11-04T00:49:06.602Z,45.20
2017-11-04T00:50:06.573Z,45.00
2017-11-04T00:51:06.797Z,46.20
2017-11-04T00:52:06.525Z,46.20
2017-11-04T00:53:06.503Z,45.90
2017-11-04T00:54:06.467Z,46.70
2017-11-04T00:55:06.445Z,46.40
2017-11-04T00:56:06.419Z,45.80
2017-11-04T00:57:06.379Z,48.30
2017-11-04T00:58:06.361Z,49.70
2017-11-04T00:59:06.328Z,47.50
2017-11-04T01:00:06.306Z,49.90
2017-11-04T01:01:06.283Z,51.60
2017-11-04T01:02:06.251Z,51.10
2017-11-04T01:03:06.478Z,52.00
2017-11-04T01:04:06.199Z,52.50
2017-11-04T01:05:06.168Z,53.20
2017-11-04T01:06:06.145Z,53.80
2017-11-04T01:07:06.119Z,54.40
2017-11-04T01:08:06.096Z,55.00
2017-11-04T01:09:06.064Z,55.60
2017-11-04T01:10:06.041Z,56.30
2017-11-04T01:11:06.007Z,54.70
2017-11-04T01:12:05.984Z,53.70
2017-11-04T01:13:05.960Z,55.80
2017-11-04T01:14:05.941Z,55.10
2017-11-04T01:15:05.905Z,55.60
2017-11-04T01:16:05.879Z,55.10
2017-11-04T01:17:05.845Z,55.40
2017-11-04T01:18:05.820Z,56.20
2017-11-04T01:19:05.791Z,56.80
2017-11-04T01:20:05.769Z,56.00
2017-11-04T01:21:06.040Z,55.50
2017-11-04T01:22:05.712Z,54.90
2017-11-04T01:23:05.691Z,56.00
2017-11-04T01:24:05.665Z,59.00
2017-11-04T01:25:05.631Z,58.20
2017-11-04T01:26:05.607Z,55.30
2017-11-04T01:27:05.831Z,57.30
2017-11-04T01:28:05.548Z,59.50
2017-11-04T01:29:05.536Z,59.50
2017-11-04T01:30:05.491Z,58.50
2017-11-04T01:31:05.468Z,59.70
2017-11-04T01:32:05.444Z,60.30
2017-11-04T01:33:05.424Z,61.00
2017-11-04T01:34:05.389Z,58.60
2017-11-04T01:35:05.359Z,61.40
2017-11-04T01:36:05.337Z,58.50
2017-11-04T01:37:05.306Z,58.00
2017-11-04T01:38:05.277Z,61.60
2017-11-04T01:39:05.258Z,64.20
2017-11-04T01:40:05.226Z,64.10
2017-11-04T01:41:05.199Z,62.80
2017-11-04T01:42:05.164Z,62.80
2017-11-04T01:43:05.144Z,66.20
2017-11-04T01:44:05.111Z,66.60
2017-11-04T01:45:05.086Z,68.60
2017-11-04T01:46:05.061Z,68.10
2017-11-04T01:47:05.028Z,67.50
2017-11-04T01:48:05.005Z,68.10
2017-11-04T01:49:04.980Z,66.60
2017-11-04T01:50:04.946Z,67.10
2017-11-04T01:51:05.274Z,68.60
2017-11-04T01:52:04.893Z,69.10
2017-11-04T01:53:04.864Z,67.80
2017-11-04T01:54:04.835Z,67.40
2017-11-04T01:55:04.817Z,68.30
2017-11-04T01:56:04.793Z,69.50
2017-11-04T01:57:05.015Z,71.60
2017-11-04T01:58:04.726Z,70.00
2017-11-04T01:59:04.701Z,72.90
2017-11-04T02:00:04.673Z,71.80
2017-11-04T02:01:04.644Z,74.50
2017-11-04T02:02:04.923Z,74.70
2017-11-04T02:03:04.588Z,73.20
2017-11-04T02:04:04.568Z,73.00
2017-11-04T02:05:04.537Z,73.90
2017-11-04T02:06:04.507Z,75.60
2017-11-04T02:07:04.484Z,76.20
2017-11-04T02:08:04.456Z,79.10
2017-11-04T02:09:04.427Z,78.10
2017-11-04T02:10:04.397Z,76.90
2017-11-04T02:11:04.371Z,79.20
2017-11-04T02:12:04.344Z,81.10
2017-11-04T02:13:04.321Z,77.70
2017-11-04T02:14:04.297Z,77.70
2017-11-04T02:15:04.264Z,78.40
2017-11-04T02:16:04.236Z,77.30
2017-11-04T02:17:04.208Z,77.40
2017-11-04T02:18:04.175Z,82.20
2017-11-04T02:19:04.150Z,80.90
2017-11-04T02:20:04.381Z,81.90
2017-11-04T02:21:04.094Z,82.20
2017-11-04T02:22:04.068Z,79.90
2017-11-04T02:23:04.046Z,81.90
2017-11-04T02:24:04.015Z,83.50
2017-11-04T02:25:03.989Z,79.40
2017-11-04T02:26:03.956Z,80.90
2017-11-04T02:27:03.931Z,80.00
2017-11-04T02:28:03.900Z,80.40
2017-11-04T02:29:03.878Z,82.80
2017-11-04T02:30:03.848Z,83.90
2017-11-04T02:31:03.822Z,83.50
2017-11-04T02:32:04.095Z,80.60
2017-11-04T02:33:03.764Z,84.40
2017-11-04T02:34:03.737Z,80.90
2017-11-04T02:35:03.710Z,81.20
2017-11-04T02:36:03.680Z,78.70
2017-11-04T02:37:03.653Z,83.50
2017-11-04T02:38:04.282Z,85.40
2017-11-04T02:39:03.600Z,81.60
2017-11-04T02:40:03.570Z,80.10
2017-11-04T02:41:03.537Z,78.30
2017-11-04T02:42:03.514Z,80.40
2017-11-04T02:43:03.485Z,81.00
2017-11-04T02:44:03.463Z,80.20
2017-11-04T02:45:03.429Z,81.30
2017-11-04T02:46:03.409Z,83.30
2017-11-04T02:47:03.375Z,83.10
2017-11-04T02:48:03.369Z,83.30
2017-11-04T02:49:03.322Z,80.40
2017-11-04T02:50:03.291Z,79.30
2017-11-04T02:51:03.262Z,84.90
2017-11-04T02:52:03.241Z,83.80
2017-11-04T02:53:03.208Z,83.20
2017-11-04T02:54:03.182Z,84.40
2017-11-04T02:55:03.161Z,83.00
2017-11-04T02:56:03.132Z,83.80
2017-11-04T02:57:03.099Z,82.90
2017-11-04T02:58:03.065Z,82.90
2017-11-04T02:59:03.046Z,83.30
2017-11-04T03:00:03.019Z,83.20
2017-11-04T03:01:03.336Z,85.50
2017-11-04T03:02:02.957Z,84.00
2017-11-04T03:03:02.935Z,84.00
2017-11-04T03:04:02.900Z,85.20
2017-11-04T03:05:02.874Z,86.90
2017-11-04T03:06:02.848Z,86.00
2017-11-04T03:07:03.069Z,85.30
2017-11-04T03:08:02.791Z,85.70
2017-11-04T03:09:02.763Z,83.70
2017-11-04T03:10:02.739Z,86.90
2017-11-04T03:11:02.711Z,87.80
2017-11-04T03:12:02.679Z,84.10
2017-11-04T03:13:02.655Z,86.40
2017-11-04T03:14:02.625Z,86.20
2017-11-04T03:15:02.599Z,85.40
2017-11-04T03:16:02.572Z,86.90
2017-11-04T03:17:02.542Z,88.00
2017-11-04T03:18:02.511Z,88.10
2017-11-04T03:19:02.488Z,87.90
2017-11-04T03:20:02.451Z,87.30
2017-11-04T03:21:02.429Z,86.80
2017-11-04T03:22:02.399Z,89.20
2017-11-04T03:23:02.371Z,89.80
2017-11-04T03:24:02.346Z,88.00
2017-11-04T03:25:02.572Z,89.30
2017-11-04T03:26:02.288Z,88.10
2017-11-04T03:27:02.256Z,90.60
2017-11-04T03:28:02.232Z,90.90
2017-11-04T03:29:02.207Z,88.80
2017-11-04T03:30:02.177Z,92.90
2017-11-04T03:31:02.152Z,92.10
2017-11-04T03:32:02.117Z,90.10
2017-11-04T03:33:02.092Z,87.90
2017-11-04T03:34:02.062Z,90.30
2017-11-04T03:35:02.043Z,91.80
2017-11-04T03:36:03.209Z,91.10
2017-11-04T03:37:01.975Z,90.60
2017-11-04T03:38:01.954Z,92.80
2017-11-04T03:39:01.922Z,91.10
2017-11-04T03:40:01.892Z,92.80
2017-11-04T03:41:01.863Z,89.20
2017-11-04T03:42:02.186Z,91.10
2017-11-04T03:43:01.818Z,88.80
2017-11-04T03:44:01.797Z,90.20
2017-11-04T03:45:01.754Z,87.80
2017-11-04T03:46:01.729Z,89.40
2017-11-04T03:47:01.700Z,93.90
2017-11-04T03:48:01.966Z,93.30
2017-11-04T03:49:01.648Z,91.70
2017-11-04T03:50:01.616Z,90.40
2017-11-04T03:51:01.584Z,91.20
2017-11-04T03:52:01.553Z,89.90
2017-11-04T03:53:01.537Z,91.90
2017-11-04T03:54:01.757Z,90.90
2017-11-04T03:55:01.477Z,89.80
2017-11-04T03:56:01.445Z,88.80
2017-11-04T03:57:01.423Z,92.60
2017-11-04T03:58:01.390Z,92.80
2017-11-04T03:59:01.366Z,92.30
2017-11-04T04:00:01.644Z,91.90
2017-11-04T04:01:01.304Z,92.20
2017-11-04T04:02:01.272Z,93.00
2017-11-04T04:03:01.258Z,93.60
2017-11-04T04:04:01.222Z,91.80
2017-11-04T04:05:01.191Z,89.50
2017-11-04T04:06:01.167Z,93.00
2017-11-04T04:07:01.137Z,92.10
2017-11-04T04:08:01.108Z,92.10
2017-11-04T04:09:01.075Z,91.60
2017-11-04T04:10:01.052Z,91.70
2017-11-04T04:11:01.021Z,95.60
2017-11-04T04:12:01.250Z,90.60
2017-11-04T04:13:00.970Z,92.40
2017-11-04T04:14:00.937Z,94.60
2017-11-04T04:15:00.911Z,95.00
2017-11-04T04:16:00.879Z,91.30
2017-11-04T04:17:00.872Z,91.00
2017-11-04T04:18:01.123Z,90.60
2017-11-04T04:19:00.802Z,92.20
2017-11-04T04:20:00.769Z,91.90
2017-11-04T04:21:00.750Z,88.10
2017-11-04T04:22:00.719Z,89.20
2017-11-04T04:23:00.686Z,88.60
2017-11-04T04:24:00.959Z,90.00
2017-11-04T04:25:00.631Z,92.30
2017-11-04T04:26:00.600Z,92.30
2017-11-04T04:27:00.571Z,93.10
2017-11-04T04:28:00.543Z,87.80
2017-11-04T04:29:00.517Z,92.50
2017-11-04T04:30:00.741Z,92.90
2017-11-04T04:31:00.462Z,88.40
2017-11-04T04:32:00.431Z,90.70
2017-11-04T04:33:00.404Z,92.50
2017-11-04T04:34:00.373Z,91.40
2017-11-04T04:35:00.348Z,94.90
2017-11-04T04:36:00.323Z,90.60
2017-11-04T04:37:00.292Z,92.90
2017-11-04T04:38:00.261Z,95.20
2017-11-04T04:39:00.237Z,94.80
2017-11-04T04:40:00.208Z,94.90
2017-11-04T04:41:01.129Z,102.30
2017-11-04T04:42:00.151Z,99.70
2017-11-04T04:43:00.122Z,101.30
2017-11-04T04:44:00.098Z,104.90
2017-11-04T04:45:00.073Z,102.00
2017-11-04T04:46:00.041Z,103.40
2017-11-04T04:47:00.006Z,99.40
2017-11-04T04:47:59.982Z,96.10
2017-11-04T04:48:59.953Z,98.70
2017-11-04T04:49:59.927Z,98.90
2017-11-04T04:50:59.893Z,98.30
2017-11-04T04:51:59.869Z,91.20
2017-11-04T04:52:59.845Z,94.20
2017-11-04T04:53:59.813Z,93.70
2017-11-04T04:54:59.788Z,91.10
2017-11-04T04:55:59.755Z,93.10
2017-11-04T04:56:59.734Z,94.00
2017-11-04T04:57:59.697Z,90.70
2017-11-04T04:58:59.673Z,92.70
2017-11-04T04:59:59.653Z,91.60
2017-11-04T05:00:59.613Z,88.50
2017-11-04T05:01:59.598Z,91.20
2017-11-04T05:02:59.563Z,90.40
2017-11-04T05:03:59.531Z,91.50
2017-11-04T05:04:59.802Z,89.60
2017-11-04T05:05:59.475Z,87.90
2017-11-04T05:06:59.455Z,89.10
2017-11-04T05:07:59.424Z,89.00
2017-11-04T05:08:59.390Z,89.60
2017-11-04T05:09:59.363Z,91.30
2017-11-04T05:10:59.342Z,89.50
2017-11-04T05:11:59.302Z,89.00
2017-11-04T05:12:59.275Z,88.20
2017-11-04T05:13:59.252Z,92.20
2017-11-04T05:14:59.222Z,87.30
2017-11-04T05:15:59.194Z,88.80
2017-11-04T05:16:59.165Z,89.00
2017-11-04T05:17:59.134Z,93.10
2017-11-04T05:18:59.113Z,86.80
2017-11-04T05:19:59.078Z,98.00
2017-11-04T05:20:59.054Z,99.30
2017-11-04T05:21:59.032Z,100.20
2017-11-04T05:22:58.998Z,95.80
2017-11-04T05:23:58.967Z,96.90
2017-11-04T05:24:58.948Z,94.70
2017-11-04T05:25:58.916Z,97.80
2017-11-04T05:26:58.882Z,97.60
2017-11-04T05:27:58.860Z,99.70
2017-11-04T05:28:58.827Z,96.80
2017-11-04T05:29:58.798Z,98.20
2017-11-04T05:30:58.775Z,96.70
2017-11-04T05:31:58.742Z,95.90
2017-11-04T05:32:58.715Z,96.40
2017-11-04T05:33:58.935Z,100.10
2017-11-04T05:34:58.661Z,97.40
2017-11-04T05:35:58.635Z,99.60
2017-11-04T05:36:58.611Z,105.80
2017-11-04T05:37:58.570Z,100.20
2017-11-04T05:38:58.547Z,100.10
2017-11-04T05:39:58.517Z,98.90
2017-11-04T05:40:58.489Z,100.20
2017-11-04T05:41:58.459Z,100.10
2017-11-04T05:42:58.436Z,104.80
2017-11-04T05:43:58.414Z,100.50
2017-11-04T05:44:58.373Z,101.90
2017-11-04T05:45:58.646Z,100.50
2017-11-04T05:46:58.320Z,99.10
2017-11-04T05:47:58.293Z,103.10
2017-11-04T05:48:58.269Z,102.70
2017-11-04T05:49:58.234Z,99.80
2017-11-04T05:50:58.460Z,104.90
2017-11-04T05:51:58.180Z,102.30
2017-11-04T05:52:58.153Z,105.70
2017-11-04T05:53:58.125Z,106.90
2017-11-04T05:54:58.098Z,104.50
2017-11-04T05:55:58.068Z,105.60
2017-11-04T05:56:58.046Z,103.90
2017-11-04T05:57:58.013Z,102.90
2017-11-04T05:58:57.990Z,105.50
2017-11-04T05:59:57.959Z,103.80
2017-11-04T06:00:57.922Z,108.80
2017-11-04T06:01:57.904Z,111.10
2017-11-04T06:02:57.874Z,106.40
2017-11-04T06:03:57.842Z,110.20
2017-11-04T06:04:57.813Z,106.90
2017-11-04T06:05:57.788Z,107.00
2017-11-04T06:06:57.762Z,111.70
2017-11-04T06:07:57.738Z,110.10
2017-11-04T06:08:57.697Z,111.30
2017-11-04T06:09:57.673Z,108.10
2017-11-04T06:10:57.653Z,104.00
2017-11-04T06:11:57.625Z,106.10
2017-11-04T06:12:57.590Z,107.70
2017-11-04T06:13:57.559Z,108.10
2017-11-04T06:14:57.778Z,107.90
2017-11-04T06:15:57.502Z,110.70
2017-11-04T06:16:57.509Z,113.10
2017-11-04T06:17:57.452Z,114.50
2017-11-04T06:18:57.417Z,114.30
2017-11-04T06:19:57.404Z,111.30
2017-11-04T06:20:57.664Z,118.10
2017-11-04T06:21:57.337Z,118.00
2017-11-04T06:22:57.302Z,118.30
2017-11-04T06:23:57.276Z,118.70
2017-11-04T06:24:57.251Z,112.20
2017-11-04T06:25:57.218Z,113.90
2017-11-04T06:26:57.446Z,115.30
2017-11-04T06:27:57.163Z,114.20
2017-11-04T06:28:57.138Z,115.10
2017-11-04T06:29:57.111Z,115.60
2017-11-04T06:30:57.088Z,114.20
2017-11-04T06:31:57.047Z,113.90
2017-11-04T06:32:57.028Z,117.50
2017-11-04T06:33:56.995Z,106.00
2017-11-04T06:34:56.962Z,112.40
2017-11-04T06:35:56.947Z,111.70
2017-11-04T06:36:56.906Z,113.20
2017-11-04T06:37:56.880Z,112.00
2017-11-04T06:38:57.456Z,114.30
2017-11-04T06:39:56.830Z,109.70
2017-11-04T06:40:56.809Z,110.20
2017-11-04T06:41:56.772Z,114.30
2017-11-04T06:42:56.740Z,114.20
2017-11-04T06:43:56.713Z,115.80
2017-11-04T06:44:56.685Z,114.10
2017-11-04T06:45:56.660Z,114.40
2017-11-04T06:46:56.626Z,113.80
2017-11-04T06:47:56.599Z,110.70
2017-11-04T06:48:56.570Z,111.20
2017-11-04T06:49:56.539Z,107.20
2017-11-04T06:50:56.510Z,108.30
2017-11-04T06:51:56.491Z,108.30
2017-11-04T06:52:56.456Z,107.80
2017-11-04T06:53:56.429Z,109.10
2017-11-04T06:54:56.400Z,106.70
2017-11-04T06:55:56.375Z,108.60
2017-11-04T06:56:56.346Z,106.30
2017-11-04T06:57:56.313Z,108.10
2017-11-04T06:58:56.290Z,106.10
2017-11-04T06:59:56.271Z,110.40
2017-11-04T07:00:56.234Z,107.60
2017-11-04T07:01:56.453Z,106.90
2017-11-04T07:02:56.187Z,109.60
2017-11-04T07:03:56.152Z,111.30
2017-11-04T07:04:56.121Z,105.90
2017-11-04T07:05:56.094Z,106.80
2017-11-04T07:06:56.066Z,108.80
2017-11-04T07:07:56.035Z,106.80
2017-11-04T07:08:56.009Z,106.10
2017-11-04T07:09:55.997Z,104.40
2017-11-04T07:10:55.958Z,104.10
2017-11-04T07:11:55.927Z,98.90
2017-11-04T07:12:55.900Z,104.00
2017-11-04T07:13:55.872Z,100.10
2017-11-04T07:14:55.845Z,102.50
2017-11-04T07:15:55.819Z,97.20
2017-11-04T07:16:55.786Z,100.20
2017-11-04T07:17:55.759Z,100.40
2017-11-04T07:18:55.732Z,101.60
2017-11-04T07:19:55.961Z,99.30
2017-11-04T07:20:55.674Z,98.30
2017-11-04T07:21:55.650Z,98.90
2017-11-04T07:22:55.624Z,98.00
2017-11-04T07:23:55.594Z,99.80
2017-11-04T07:24:55.566Z,95.20
2017-11-04T07:25:55.538Z,95.10
2017-11-04T07:26:55.513Z,95.30
2017-11-04T07:27:55.483Z,91.90
2017-11-04T07:28:55.454Z,90.00
2017-11-04T07:29:55.432Z,89.10
2017-11-04T07:30:55.399Z,88.20
2017-11-04T07:31:55.377Z,89.00
2017-11-04T07:32:55.344Z,85.40
2017-11-04T07:33:55.314Z,84.20
2017-11-04T07:34:55.293Z,84.60
2017-11-04T07:35:55.264Z,85.20
2017-11-04T07:36:55.242Z,85.00
2017-11-04T07:37:55.204Z,86.40
2017-11-04T07:38:55.177Z,86.50
2017-11-04T07:39:55.148Z,87.80
2017-11-04T07:40:55.124Z,86.00
2017-11-04T07:41:55.097Z,87.20
2017-11-04T07:42:55.069Z,87.70
2017-11-04T07:43:55.340Z,91.00
2017-11-04T07:44:55.011Z,89.80
2017-11-04T07:45:54.990Z,90.50
2017-11-04T07:46:54.958Z,91.30
2017-11-04T07:47:54.932Z,88.40
2017-11-04T07:48:54.906Z,89.30
2017-11-04T07:49:54.886Z,84.60
2017-11-04T07:50:54.850Z,83.70
2017-11-04T07:51:54.826Z,87.00
2017-11-04T07:52:54.819Z,84.90
2017-11-04T07:53:54.773Z,85.30
2017-11-04T07:54:54.992Z,80.30
2017-11-04T07:55:54.715Z,83.00
2017-11-04T07:56:54.685Z,82.70
2017-11-04T07:57:54.665Z,79.50
2017-11-04T07:58:54.629Z,79.80
2017-11-04T07:59:54.614Z,81.30
2017-11-04T08:00:54.574Z,80.80
2017-11-04T08:01:54.546Z,80.20
2017-11-04T08:02:54.526Z,78.70
2017-11-04T08:03:54.495Z,76.90
2017-11-04T08:04:54.466Z,75.60
2017-11-04T08:05:54.440Z,76.60
2017-11-04T08:06:54.714Z,80.20
2017-11-04T08:07:54.384Z,76.30
2017-11-04T08:08:54.360Z,75.60
2017-11-04T08:09:54.326Z,73.40
2017-11-04T08:10:54.306Z,75.20
2017-11-04T08:11:54.280Z,76.60
2017-11-04T08:12:54.249Z,74.70
2017-11-04T08:13:54.225Z,74.80
2017-11-04T08:14:54.200Z,72.90
2017-11-04T08:15:54.173Z,75.10
2017-11-04T08:16:54.142Z,75.00
2017-11-04T08:17:54.113Z,74.40
2017-11-04T08:18:54.087Z,76.90
2017-11-04T08:19:54.061Z,75.70
2017-11-04T08:20:54.032Z,74.90
2017-11-04T08:21:54.005Z,74.30
2017-11-04T08:22:53.981Z,73.60
2017-11-04T08:23:53.954Z,73.10
2017-11-04T08:24:53.923Z,69.50
2017-11-04T08:25:53.902Z,71.50
2017-11-04T08:26:53.872Z,70.40
2017-11-04T08:27:53.842Z,68.90
2017-11-04T08:28:53.828Z,65.80
2017-11-04T08:29:54.035Z,67.90
2017-11-04T08:30:53.764Z,66.20
2017-11-04T08:31:53.735Z,74.30
2017-11-04T08:32:53.702Z,72.60
2017-11-04T08:33:53.682Z,71.60
2017-11-04T08:34:53.654Z,72.30
2017-11-04T08:35:53.872Z,71.30
2017-11-04T08:36:53.875Z,69.90
2017-11-04T08:37:53.573Z,66.30
2017-11-04T08:38:53.545Z,66.20
2017-11-04T08:39:53.521Z,63.20
2017-11-04T08:40:53.494Z,62.70
2017-11-04T08:41:53.771Z,62.80
2017-11-04T08:42:53.441Z,62.60
2017-11-04T08:43:53.414Z,61.60
2017-11-04T08:44:53.381Z,62.00
2017-11-04T08:45:53.357Z,61.20
2017-11-04T08:46:53.331Z,62.00
2017-11-04T08:47:53.309Z,64.00
2017-11-04T08:48:53.277Z,62.70
2017-11-04T08:49:53.252Z,64.00
2017-11-04T08:50:53.222Z,63.70
2017-11-04T08:51:53.194Z,61.90
2017-11-04T08:52:53.174Z,65.90
2017-11-04T08:53:53.396Z,62.70
2017-11-04T08:54:53.124Z,61.00
2017-11-04T08:55:53.093Z,62.20
2017-11-04T08:56:53.060Z,59.90
2017-11-04T08:57:53.040Z,61.90
2017-11-04T08:58:53.008Z,58.40
2017-11-04T08:59:52.986Z,58.60
2017-11-04T09:00:52.955Z,60.30
2017-11-04T09:01:52.928Z,60.90
2017-11-04T09:02:52.907Z,56.80
2017-11-04T09:03:52.882Z,57.40
2017-11-04T09:04:52.849Z,57.50
2017-11-04T09:05:53.071Z,59.00
2017-11-04T09:06:52.800Z,58.30
2017-11-04T09:07:52.778Z,58.40
2017-11-04T09:08:52.749Z,59.20
2017-11-04T09:09:52.727Z,55.40
2017-11-04T09:10:52.694Z,58.00
2017-11-04T09:11:52.671Z,58.40
2017-11-04T09:12:52.651Z,56.60
2017-11-04T09:13:52.615Z,55.50
2017-11-04T09:14:52.593Z,59.60
2017-11-04T09:15:52.559Z,55.40
2017-11-04T09:16:52.533Z,56.90
2017-11-04T09:17:52.509Z,56.80
2017-11-04T09:18:52.479Z,54.90
2017-11-04T09:19:52.465Z,57.40
2017-11-04T09:20:52.430Z,58.00
2017-11-04T09:21:52.406Z,56.10
2017-11-04T09:22:52.380Z,55.80
2017-11-04T09:23:52.353Z,59.90
2017-11-04T09:24:52.322Z,58.50
2017-11-04T09:25:52.302Z,59.30
2017-11-04T09:26:52.274Z,56.80
2017-11-04T09:27:52.248Z,58.80
2017-11-04T09:28:52.220Z,55.90
2017-11-04T09:29:52.191Z,55.20
2017-11-04T09:30:52.166Z,53.90
2017-11-04T09:31:52.143Z,55.30
2017-11-04T09:32:52.120Z,53.40
2017-11-04T09:33:52.098Z,53.70
2017-11-04T09:34:52.365Z,53.60
2017-11-04T09:35:52.041Z,52.80
2017-11-04T09:36:52.021Z,51.60
2017-11-04T09:37:51.984Z,52.80
2017-11-04T09:38:51.965Z,50.10
2017-11-04T09:39:51.936Z,52.10
2017-11-04T09:40:51.907Z,53.80
2017-11-04T09:41:51.884Z,49.70
2017-11-04T09:42:51.864Z,49.40
2017-11-04T09:43:51.837Z,48.70
2017-11-04T09:44:51.812Z,48.00
2017-11-04T09:45:51.786Z,48.90
2017-11-04T09:46:51.758Z,46.60
2017-11-04T09:47:51.742Z,47.50
2017-11-04T09:48:51.704Z,48.10
2017-11-04T09:49:51.690Z,47.10
2017-11-04T09:50:51.655Z,46.40
2017-11-04T09:51:51.634Z,50.30
2017-11-04T09:52:51.608Z,47.60
2017-11-04T09:53:51.581Z,46.80
2017-11-04T09:54:51.554Z,48.10
2017-11-04T09:55:51.532Z,46.40
2017-11-04T09:56:51.520Z,46.70
2017-11-04T09:57:51.786Z,46.80
2017-11-04T09:58:51.457Z,43.80
2017-11-04T09:59:51.430Z,45.20
2017-11-04T10:00:51.421Z,44.30
2017-11-04T10:01:51.390Z,45.30
2017-11-04T10:02:51.360Z,46.10
2017-11-04T10:03:51.335Z,44.70
2017-11-04T10:04:51.307Z,45.50
2017-11-04T10:05:51.285Z,44.80
2017-11-04T10:06:51.266Z,44.50
2017-11-04T10:07:51.237Z,44.00
2017-11-04T10:08:51.211Z,45.10
2017-11-04T10:09:51.458Z,44.10
2017-11-04T10:10:51.177Z,44.10
2017-11-04T10:11:51.144Z,44.40
2017-11-04T10:12:51.114Z,43.90
2017-11-04T10:13:51.096Z,43.30
2017-11-04T10:14:51.076Z,43.20
2017-11-04T10:15:51.049Z,43.50
2017-11-04T10:16:51.016Z,44.40
2017-11-04T10:17:50.997Z,45.00
2017-11-04T10:18:50.972Z,45.00
2017-11-04T10:19:50.949Z,44.70
2017-11-04T10:20:50.921Z,45.60
2017-11-04T10:21:50.898Z,45.60
2017-11-04T10:22:50.879Z,43.30
2017-11-04T10:23:50.852Z,43.60
2017-11-04T10:24:50.827Z,43.60
2017-11-04T10:25:50.800Z,42.90
2017-11-04T10:26:50.778Z,42.70
2017-11-04T10:27:50.754Z,43.10
2017-11-04T10:28:50.725Z,42.10
2017-11-04T10:29:50.701Z,41.80
2017-11-04T10:30:50.679Z,40.30
2017-11-04T10:31:50.650Z,42.10
2017-11-04T10:32:50.630Z,40.10
2017-11-04T10:33:50.859Z,40.90
2017-11-04T10:34:50.580Z,41.00
2017-11-04T10:35:50.562Z,39.40
2017-11-04T10:36:50.538Z,39.90
2017-11-04T10:37:50.520Z,39.90
2017-11-04T10:38:50.513Z,37.70
2017-11-04T10:39:50.469Z,37.70
2017-11-04T10:40:50.445Z,36.90
2017-11-04T10:41:50.424Z,37.70
2017-11-04T10:42:50.395Z,35.30
2017-11-04T10:43:50.381Z,36.70
2017-11-04T10:44:50.359Z,36.30
2017-11-04T10:45:50.326Z,36.20
2017-11-04T10:46:50.303Z,36.60
2017-11-04T10:47:50.279Z,38.40
2017-11-04T10:48:50.257Z,37.40
2017-11-04T10:49:50.233Z,35.30
2017-11-04T10:50:50.215Z,36.10
2017-11-04T10:51:50.188Z,34.30
2017-11-04T10:52:50.173Z,35.70
2017-11-04T10:53:50.148Z,36.10
2017-11-04T10:54:50.122Z,36.30
2017-11-04T10:55:50.097Z,36.30
2017-11-04T10:56:50.325Z,36.20
2017-11-04T10:57:50.055Z,35.60
2017-11-04T10:58:50.033Z,34.40
2017-11-04T10:59:50.004Z,35.10
2017-11-04T11:00:49.988Z,32.20
2017-11-04T11:01:49.965Z,33.80
2017-11-04T11:02:50.189Z,32.70
2017-11-04T11:03:49.918Z,32.70
2017-11-04T11:04:49.900Z,30.80
2017-11-04T11:05:49.871Z,32.50
2017-11-04T11:06:49.849Z,33.40
2017-11-04T11:07:49.826Z,32.80
2017-11-04T11:08:50.107Z,32.10
2017-11-04T11:09:49.783Z,33.00
2017-11-04T11:10:49.755Z,31.40
2017-11-04T11:11:49.731Z,29.90
2017-11-04T11:12:49.711Z,30.20
2017-11-04T11:13:49.686Z,30.00
2017-11-04T11:14:49.660Z,31.00
2017-11-04T11:15:49.641Z,31.20
2017-11-04T11:16:49.618Z,31.60
2017-11-04T11:17:49.596Z,33.80
2017-11-04T11:18:49.575Z,34.60
2017-11-04T11:19:49.544Z,33.50
2017-11-04T11:20:49.525Z,33.10
2017-11-04T11:21:49.509Z,33.60
2017-11-04T11:22:49.477Z,30.50
2017-11-04T11:23:49.456Z,30.40
2017-11-04T11:24:49.434Z,29.30
2017-11-04T11:25:49.412Z,30.10
2017-11-04T11:26:49.394Z,31.60
2017-11-04T11:27:49.365Z,30.40
2017-11-04T11:28:49.341Z,27.80
2017-11-04T11:29:49.321Z,30.80
2017-11-04T11:30:49.300Z,28.50
2017-11-04T11:31:49.269Z,30.40
2017-11-04T11:32:49.252Z,32.90
2017-11-04T11:33:49.224Z,31.80
2017-11-04T11:34:49.208Z,29.90
2017-11-04T11:35:49.184Z,29.20
2017-11-04T11:36:49.160Z,28.10
2017-11-04T11:37:49.384Z,28.50
2017-11-04T11:38:49.111Z,27.30
2017-11-04T11:39:49.090Z,25.40
2017-11-04T11:40:49.066Z,26.80
2017-11-04T11:41:49.039Z,25.90
2017-11-04T11:42:49.019Z,27.60
2017-11-04T11:43:48.996Z,25.00
2017-11-04T11:44:48.974Z,26.60
2017-11-04T11:45:48.946Z,25.10
2017-11-04T11:46:48.928Z,25.60
2017-11-04T11:47:48.902Z,26.40
2017-11-04T11:48:48.885Z,26.30
2017-11-04T11:49:48.861Z,28.10
2017-11-04T11:50:48.834Z,26.30
2017-11-04T11:51:48.807Z,26.30
2017-11-04T11:52:48.790Z,25.60
2017-11-04T11:53:48.769Z,24.40
2017-11-04T11:54:48.743Z,24.90
2017-11-04T11:55:48.720Z,24.90
2017-11-04T11:56:48.692Z,25.40
2017-11-04T11:57:48.668Z,26.30
2017-11-04T11:58:48.641Z,26.00
2017-11-04T11:59:48.621Z,26.80
2017-11-04T12:00:48.601Z,25.70
2017-11-04T12:01:48.575Z,26.40
2017-11-04T12:02:48.543Z,27.50
2017-11-04T12:03:48.529Z,26.20
2017-11-04T12:04:48.497Z,27.60
2017-11-04T12:05:48.473Z,28.10
2017-11-04T12:06:48.448Z,27.80
2017-11-04T12:07:48.432Z,26.20
2017-11-04T12:08:48.408Z,27.80
2017-11-04T12:09:48.385Z,27.00
2017-11-04T12:10:48.370Z,28.10
2017-11-04T12:11:48.336Z,30.60
2017-11-04T12:12:48.315Z,28.20
2017-11-04T12:13:48.289Z,29.30
2017-11-04T12:14:48.267Z,30.00
2017-11-04T12:15:48.252Z,31.80
2017-11-04T12:16:48.227Z,29.90
2017-11-04T12:17:48.207Z,30.20
2017-11-04T12:18:48.181Z,29.60
2017-11-04T12:19:48.152Z,29.40
2017-11-04T12:20:48.132Z,28.40
2017-11-04T12:21:48.112Z,28.00
2017-11-04T12:22:48.094Z,28.00
2017-11-04T12:23:48.062Z,28.90
2017-11-04T12:24:48.292Z,28.40
2017-11-04T12:25:48.019Z,30.00
2017-11-04T12:26:47.996Z,28.40
2017-11-04T12:27:47.978Z,28.10
2017-11-04T12:28:47.954Z,29.50
2017-11-04T12:29:47.929Z,31.30
2017-11-04T12:30:47.905Z,29.70
2017-11-04T12:31:47.884Z,29.50
2017-11-04T12:32:47.858Z,30.10
2017-11-04T12:33:47.853Z,30.50
2017-11-04T12:34:47.812Z,30.80
2017-11-04T12:35:47.787Z,31.00
2017-11-04T12:36:47.766Z,29.00
2017-11-04T12:37:47.758Z,31.90
2017-11-04T12:38:47.719Z,28.60
2017-11-04T12:39:47.697Z,32.40
2017-11-04T12:40:47.675Z,30.10
2017-11-04T12:41:47.656Z,31.30
2017-11-04T12:42:47.880Z,30.50
2017-11-04T12:43:47.608Z,30.90
2017-11-04T12:44:47.579Z,30.40
2017-11-04T12:45:47.555Z,31.10
2017-11-04T12:46:47.536Z,31.50
2017-11-04T12:47:47.505Z,31.00
2017-11-04T12:48:47.491Z,31.00